Lakewood, CO

11:50 PM MDT on March 29, 2015 (GMT -0600)
Centennial | | Change Station
CLOSE
Current Station
Airport
Location: Denver Centennial,
Elevation: 5883 ft
Nearby Weather Stations

Elev 5883 ft 39.56 °N, 104.85 °W | Updated 57 minutes ago

Clear
Clear
50 °F
Feels Like 50 °F
N
15
Wind Variable Wind from SSW

Today
High -- | Low -- °F
--% Chance of Precip.
Yesterday
High -- | Low -- °F
Precip. -- in
6:49 AM 7:21 PM
Waxing Gibbous, 77% visible
Pressure 30.12 in
Visibility 10.0 miles
Clouds Few 22000 ft
Dew Point 23 °F
Humidity 35%
Rainfall 0.00 in
Snow Depth Not available.
UV 0 out of 12
Pollen 10.60 out of 12
Air Quality Not available.
Flu Activity Not available.
METAR KAPA 300453Z 20013KT 10SM FEW220 10/M05 A3017 RMK AO2 SLP198 T01001050

More Conditions Fewer Conditions

Pressure 30.12 in
Visibility 10.0 miles
Clouds Few 22000 ft
Dew Point 23 °F
Humidity 35%
Rainfall 0.00 in
Snow Depth Not available.
UV 0 out of 12
Pollen 10.60 out of 12
Air Quality Not available.
Flu Activity Not available.
METAR KAPA 300453Z 20013KT 10SM FEW220 10/M05 A3017 RMK AO2 SLP198 T01001050

More Conditions Fewer Conditions

10-Day Weather Forecast

Almanac

Astronomy

Mar. 29, 2015 Rise Set
Actual Time
Civil Twilight
Nautical Twilight
Astronomical Twilight
Moon
Length of Visible Light
Length of Day
Tomorrow will be .
, % of the Moon is Illuminated

Today's Extremes

State Highs State Lows

Community

WunderPhotos

Upload Photos

1,809,437 photos uploaded!

WunderBlogs® & News

Nearby

Air Quality

  Air Quality AQ Index Pollutant
Not available.

Snow Depth

Station Depth Elevation

Earthquake Activity

City Distance Mag. Time & Date
Minimum magnitude displayed is 2.5.

Coastal Water Temperatures

Place Temperature

Stations

Nearby Weather Stations

Station Location Temp. Windchill Dew Point Humidity Wind Precip. Elev Updated Type